createdAt,value
2022-09-28T00:03:58.852Z,98365.34
2022-09-28T00:10:00.579Z,98312.34
2022-09-28T00:16:07.428Z,98352.03
2022-09-28T00:22:09.262Z,98355.19
2022-09-28T00:28:10.952Z,98334.19
2022-09-28T00:34:13.285Z,98355.06
2022-09-28T00:40:15.128Z,98345.88
2022-09-28T00:46:33.881Z,98338.34
2022-09-28T00:53:06.507Z,98288.50
2022-09-28T00:59:09.511Z,98287.25
2022-09-28T01:05:12.053Z,98327.75
2022-09-28T01:11:13.778Z,98304.94
2022-09-28T01:17:28.806Z,98284.72
2022-09-28T01:23:48.756Z,98318.22
2022-09-28T01:30:08.719Z,98323.78
2022-09-28T01:36:39.779Z,98285.19
2022-09-28T01:42:44.369Z,98284.34
2022-09-28T01:49:27.802Z,98349.72
2022-09-28T01:55:37.508Z,98320.25
2022-09-28T02:01:53.926Z,98315.81
2022-09-28T02:08:04.448Z,98315.28
2022-09-28T02:14:09.958Z,98355.06
2022-09-28T02:20:11.910Z,98331.81
2022-09-28T02:26:21.245Z,98303.78
2022-09-28T02:32:26.319Z,98315.78
2022-09-28T02:38:28.059Z,98339.91
2022-09-28T02:44:54.048Z,98350.59
2022-09-28T02:51:20.840Z,98316.56
2022-09-28T02:57:46.990Z,98362.63
2022-09-28T03:04:09.164Z,98330.59
2022-09-28T03:10:16.820Z,98359.94
2022-09-28T03:16:19.983Z,98361.91
2022-09-28T03:22:21.831Z,98357.91
2022-09-28T03:28:23.662Z,98323.91
2022-09-28T03:34:25.403Z,98302.72
2022-09-28T03:40:27.291Z,98296.38
2022-09-28T03:46:29.102Z,98285.66
2022-09-28T03:52:30.801Z,98335.41
2022-09-28T03:58:32.808Z,98294.56
2022-09-28T04:04:34.613Z,98351.72
2022-09-28T04:10:36.461Z,98347.72
2022-09-28T04:16:38.455Z,98373.72
2022-09-28T04:22:40.350Z,98325.78
2022-09-28T04:29:06.188Z,98337.50
2022-09-28T04:35:11.658Z,98329.81
2022-09-28T04:41:13.374Z,98324.09
2022-09-28T04:47:15.106Z,98363.28
2022-09-28T04:53:16.859Z,98385.59
2022-09-28T04:59:18.768Z,98366.38
2022-09-28T05:05:21.212Z,98369.50
2022-09-28T05:11:23.318Z,98356.59
2022-09-28T05:17:25.271Z,98370.31
2022-09-28T05:23:27.196Z,98360.75
2022-09-28T05:29:32.071Z,98329.56
2022-09-28T05:35:35.119Z,98310.75
2022-09-28T05:41:38.842Z,98346.28
2022-09-28T05:47:43.031Z,98300.44
2022-09-28T05:53:44.865Z,98337.66
2022-09-28T05:59:46.716Z,98323.34
2022-09-28T06:12:05.339Z,98373.75
2022-09-28T06:18:11.153Z,98370.00
2022-09-28T06:24:13.066Z,98339.59
2022-09-28T06:30:14.919Z,98366.47
2022-09-28T06:36:29.391Z,98329.59
2022-09-28T06:42:31.282Z,98393.44
2022-09-28T06:48:36.515Z,98365.75
2022-09-28T06:54:38.359Z,98356.97
2022-09-28T07:00:50.645Z,98342.06
2022-09-28T07:19:28.012Z,98395.25
2022-09-28T07:25:32.506Z,98401.03
2022-09-28T07:31:35.350Z,98354.50
2022-09-28T07:44:42.692Z,98405.00
2022-09-28T07:50:57.582Z,98401.38
2022-09-28T08:16:08.628Z,98401.53
2022-09-28T08:29:01.083Z,98437.78
2022-09-28T08:35:04.257Z,98420.69
2022-09-28T08:47:50.714Z,98432.44
2022-09-28T08:54:06.853Z,98432.06
2022-09-28T11:08:51.232Z,98430.53
2022-09-28T11:15:03.270Z,98482.38
2022-09-28T11:27:34.354Z,98442.75
2022-09-28T11:33:47.769Z,98461.66
2022-09-28T11:40:14.237Z,98497.13
2022-09-28T12:19:08.986Z,98548.69
2022-09-28T12:25:24.762Z,98506.41
2022-09-28T12:51:03.622Z,98565.72
2022-09-28T13:10:41.025Z,98590.84
2022-09-28T13:17:21.558Z,98530.06
2022-09-28T13:29:51.951Z,98521.34
2022-09-28T13:36:02.530Z,98546.06
2022-09-28T13:42:09.834Z,98541.94
2022-09-28T13:48:15.670Z,98629.03
2022-09-28T15:05:54.487Z,98649.06
2022-09-28T15:12:08.762Z,98678.84
2022-09-28T16:35:21.839Z,98741.31
2022-09-28T16:47:41.078Z,98706.81
2022-09-28T16:54:02.198Z,98766.66
2022-09-28T17:00:04.569Z,98794.97
2022-09-28T17:06:06.688Z,98795.13
2022-09-28T17:12:27.387Z,98825.50
2022-09-28T17:18:32.060Z,98838.06
2022-09-28T17:24:34.413Z,98799.47
2022-09-28T17:30:36.673Z,98742.31
2022-09-28T17:36:41.002Z,98801.66
2022-09-28T17:42:42.993Z,98802.38
2022-09-28T17:48:47.165Z,98869.94
2022-09-28T17:54:48.917Z,98841.75
2022-09-28T18:00:52.015Z,98877.91
2022-09-28T18:06:53.874Z,98878.16
2022-09-28T18:13:06.086Z,98834.53
2022-09-28T18:19:07.975Z,98823.78
2022-09-28T18:25:11.214Z,98875.72
2022-09-28T18:31:16.193Z,98906.38
2022-09-28T18:37:18.066Z,98891.69
2022-09-28T18:43:19.887Z,98906.69
2022-09-28T18:49:24.899Z,98881.06
2022-09-28T18:55:27.102Z,98912.78
2022-09-28T19:01:30.382Z,98900.59
2022-09-28T19:07:33.838Z,98912.47
2022-09-28T19:13:36.398Z,98926.44
2022-09-28T19:19:38.472Z,98926.63
2022-09-28T19:25:41.133Z,98921.22
2022-09-28T19:31:43.691Z,98933.53
2022-09-28T19:37:46.996Z,98945.19
2022-09-28T19:43:48.759Z,98917.13
2022-09-28T19:49:50.584Z,98930.09
2022-09-28T19:55:57.455Z,98946.22
2022-09-28T20:02:01.416Z,98919.72
2022-09-28T20:14:09.784Z,98934.31
2022-09-28T20:20:11.684Z,98929.22
2022-09-28T20:26:14.871Z,98937.16
2022-09-28T20:32:16.760Z,98904.47
2022-09-28T20:38:18.602Z,98937.03
2022-09-28T20:44:20.544Z,98916.69
2022-09-28T20:50:23.663Z,98947.94
2022-09-28T20:56:39.033Z,98952.91
2022-09-28T21:02:40.937Z,98951.06
2022-09-28T21:08:44.456Z,98941.41
2022-09-28T21:14:46.292Z,98949.38
2022-09-28T21:20:49.981Z,98950.19
2022-09-28T21:26:51.822Z,98941.47
2022-09-28T21:32:53.818Z,98961.66
2022-09-28T21:38:56.228Z,98947.28
2022-09-28T21:44:59.536Z,98943.94
2022-09-28T21:51:03.959Z,98932.22
2022-09-28T21:57:05.723Z,98952.31
2022-09-28T22:03:07.680Z,98921.44
2022-09-28T22:09:09.602Z,98962.34
2022-09-28T22:15:11.517Z,98975.47
2022-09-28T22:21:32.105Z,98984.63
2022-09-28T22:27:33.874Z,98968.50
2022-09-28T22:33:35.760Z,98955.81
2022-09-28T22:39:38.032Z,98961.88
2022-09-28T22:45:39.937Z,98967.94
2022-09-28T22:51:41.731Z,98964.81
2022-09-28T22:57:43.494Z,98966.50
2022-09-28T23:03:45.961Z,98949.34
2022-09-28T23:09:47.712Z,98951.94
2022-09-28T23:15:57.605Z,98958.09
2022-09-28T23:21:59.531Z,98972.72
2022-09-28T23:28:01.526Z,98977.69
2022-09-28T23:34:05.977Z,98960.09
2022-09-28T23:40:07.932Z,98966.19
2022-09-28T23:46:09.690Z,98965.22
2022-09-28T23:52:11.694Z,98963.63
2022-09-28T23:58:13.568Z,98946.94
